Time;durP1;ratioP1;P1;durP2;ratioP2;P2;SDS_P1;SDS_P2;PMS_P1;PMS_P2;Temp;Humidity;BMP_temperature;BMP_pressure;BME280_temperature;BME280_humidity;BME280_pressure;Samples;Min_cycle;Max_cycle;Signal;HPM_P1;HPM_P2
2021/04/21 00:00:00;;;;;;;29.13;16.55;;;;;;;5.75;100.00;97618.53;5031991;28;20048;-77
2021/04/21 00:02:27;;;;;;;28.65;16.98;;;;;;;5.81;100.00;97614.72;5031884;28;20064;-76
2021/04/21 00:04:55;;;;;;;32.65;18.08;;;;;;;5.92;100.00;97618.91;5049887;28;20360;-78
2021/04/21 00:07:22;;;;;;;32.33;18.05;;;;;;;6.01;100.00;97620.69;5032240;28;20128;-77
2021/04/21 00:09:51;;;;;;;27.70;17.13;;;;;;;6.15;100.00;97608.19;5051113;28;20052;-77
2021/04/21 00:12:20;;;;;;;25.05;16.75;;;;;;;6.22;100.00;97613.19;5050095;28;20397;-77
2021/04/21 00:14:49;;;;;;;28.52;17.73;;;;;;;6.16;100.00;97606.28;5049633;28;20037;-77
2021/04/21 00:17:19;;;;;;;29.83;18.05;;;;;;;6.20;100.00;97605.44;5049624;28;20049;-77
2021/04/21 00:19:48;;;;;;;26.90;17.30;;;;;;;6.23;100.00;97614.81;5049380;28;20037;-77
2021/04/21 00:22:17;;;;;;;27.23;17.05;;;;;;;6.13;100.00;97601.50;5030644;28;20270;-77
2021/04/21 00:24:45;;;;;;;23.70;15.40;;;;;;;6.14;100.00;97606.56;5029371;28;20479;-77
2021/04/21 00:27:15;;;;;;;25.75;16.48;;;;;;;6.13;100.00;97606.84;5048878;28;20052;-77
2021/04/21 00:29:45;;;;;;;28.52;16.20;;;;;;;6.23;100.00;97602.16;5050312;28;20041;-76
2021/04/21 00:32:13;;;;;;;26.33;15.70;;;;;;;6.25;100.00;97601.88;5049989;28;20045;-77
2021/04/21 00:34:42;;;;;;;26.13;16.30;;;;;;;6.27;100.00;97599.72;5050135;28;20234;-77
2021/04/21 00:37:09;;;;;;;24.55;14.90;;;;;;;6.38;100.00;97585.03;5048300;28;20053;-77
2021/04/21 00:39:38;;;;;;;24.30;14.63;;;;;;;6.33;100.00;97584.28;5050075;28;20056;-77
2021/04/21 00:42:11;;;;;;;24.13;15.43;;;;;;;6.30;100.00;97590.28;5031208;28;20480;-77
2021/04/21 00:44:45;;;;;;;24.92;14.82;;;;;;;6.31;100.00;97592.66;5031716;28;20052;-78
2021/04/21 00:47:49;;;;;;;22.53;14.20;;;;;;;6.32;100.00;97590.78;5011712;28;20045;-76
2021/04/21 00:50:23;;;;;;;22.85;14.45;;;;;;;6.28;100.00;97595.91;5029004;28;20315;-76
2021/04/21 00:53:09;;;;;;;22.33;14.07;;;;;;;6.23;100.00;97588.72;5046655;28;20097;-76
2021/04/21 00:55:43;;;;;;;25.40;14.77;;;;;;;6.18;100.00;97579.91;5029324;28;20429;-75
2021/04/21 00:58:45;;;;;;;23.35;16.13;;;;;;;6.14;100.00;97590.44;5047506;28;20089;-75
2021/04/21 01:01:12;;;;;;;24.20;15.73;;;;;;;6.13;100.00;97586.16;5047845;28;20049;-75
2021/04/21 01:03:41;;;;;;;24.90;15.05;;;;;;;6.02;100.00;97578.50;5028810;28;20049;-76
2021/04/21 01:06:13;;;;;;;27.52;14.93;;;;;;;5.99;100.00;97579.88;5028369;28;20045;-76
2021/04/21 01:08:45;;;;;;;23.67;15.07;;;;;;;6.01;100.00;97568.84;5027087;28;20114;-76
2021/04/21 01:11:34;;;;;;;27.65;15.10;;;;;;;5.96;100.00;97569.69;5028152;28;20053;-75
2021/04/21 01:14:17;;;;;;;23.27;14.77;;;;;;;6.03;100.00;97566.69;5027593;28;20147;-75
2021/04/21 01:16:47;;;;;;;21.55;13.52;;;;;;;6.04;100.00;97570.97;5045209;28;20056;-75
2021/04/21 01:19:23;;;;;;;21.02;13.68;;;;;;;6.11;100.00;97560.66;5046455;28;20079;-75
2021/04/21 01:21:53;;;;;;;21.83;14.60;;;;;;;6.17;100.00;97567.56;5045853;28;20492;-76
2021/04/21 01:24:30;;;;;;;27.38;16.50;;;;;;;6.15;100.00;97578.63;5045399;28;20056;-76
2021/04/21 01:27:08;;;;;;;28.95;16.27;;;;;;;6.09;100.00;97573.59;5031422;28;20045;-75
2021/04/21 01:29:37;;;;;;;31.38;16.88;;;;;;;6.16;100.00;97574.84;5032328;28;20048;-76
2021/04/21 01:32:12;;;;;;;22.80;14.27;;;;;;;6.24;100.00;97570.72;5032304;28;20200;-76
2021/04/21 01:34:42;;;;;;;23.33;14.45;;;;;;;6.22;100.00;97573.69;5032314;28;20048;-76
2021/04/21 01:37:11;;;;;;;25.55;15.07;;;;;;;6.24;100.00;97560.78;5049537;28;20048;-75
2021/04/21 01:39:44;;;;;;;24.88;14.65;;;;;;;6.26;100.00;97561.28;5050092;28;20037;-76
2021/04/21 01:42:12;;;;;;;26.30;14.43;;;;;;;6.30;100.00;97561.47;5031382;28;20111;-75
2021/04/21 01:44:42;;;;;;;27.23;16.35;;;;;;;6.31;100.00;97567.66;5050446;28;20048;-75
2021/04/21 01:47:16;;;;;;;25.98;14.73;;;;;;;6.34;100.00;97559.03;5029174;28;20055;-75
2021/04/21 01:49:51;;;;;;;24.98;14.80;;;;;;;6.28;100.00;97567.16;5049641;28;20049;-76
2021/04/21 01:52:35;;;;;;;24.35;13.70;;;;;;;6.22;100.00;97568.31;5049387;28;20056;-76
2021/04/21 01:55:15;;;;;;;24.63;13.98;;;;;;;6.19;100.00;97565.41;5049571;28;20059;-76
2021/04/21 01:57:49;;;;;;;25.83;14.77;;;;;;;6.10;100.00;97576.00;5064134;28;20040;-76
2021/04/21 02:00:35;;;;;;;21.35;13.57;;;;;;;6.03;100.00;97559.41;5031843;28;20052;-76
2021/04/21 02:03:18;;;;;;;20.70;11.98;;;;;;;6.01;100.00;97561.56;5049503;28;20049;-75
2021/04/21 02:06:08;;;;;;;25.35;15.55;;;;;;;5.89;100.00;97552.31;5049855;28;20481;-75
2021/04/21 02:09:12;;;;;;;24.10;14.75;;;;;;;5.82;100.00;97558.03;5014956;28;20262;-76
2021/04/21 02:12:01;;;;;;;27.45;15.93;;;;;;;5.74;100.00;97566.69;5050231;28;20060;-75
2021/04/21 02:15:00;;;;;;;27.33;15.73;;;;;;;5.69;100.00;97566.75;5047832;28;20516;-76
2021/04/21 02:17:35;;;;;;;24.98;14.57;;;;;;;5.60;100.00;97563.88;5049594;28;20136;-76
2021/04/21 02:20:10;;;;;;;24.67;14.68;;;;;;;5.61;100.00;97568.19;5032103;28;20052;-76
2021/04/21 02:22:43;;;;;;;29.70;16.05;;;;;;;5.59;100.00;97564.19;5049273;28;20459;-76
2021/04/21 02:25:12;;;;;;;26.05;15.88;;;;;;;5.63;100.00;97563.31;5049358;28;20098;-77
2021/04/21 02:28:16;;;;;;;27.25;15.70;;;;;;;5.65;100.00;97566.50;5031398;28;20048;-77
2021/04/21 02:30:42;;;;;;;27.20;15.43;;;;;;;5.54;100.00;97556.97;5031371;28;20041;-77
2021/04/21 02:33:14;;;;;;;27.20;16.17;;;;;;;5.66;100.00;97554.69;5048585;28;20128;-76
2021/04/21 02:35:47;;;;;;;24.27;15.50;;;;;;;5.71;100.00;97558.41;5048628;28;20384;-76
2021/04/21 02:38:38;;;;;;;22.60;14.75;;;;;;;5.78;100.00;97554.28;5030417;28;20053;-76
2021/04/21 02:41:17;;;;;;;26.27;14.80;;;;;;;5.89;100.00;97561.19;5030856;28;20064;-75
2021/04/21 02:44:02;;;;;;;22.35;14.00;;;;;;;5.89;100.00;97550.44;5029931;28;20060;-75
2021/04/21 02:46:49;;;;;;;24.30;14.63;;;;;;;5.94;100.00;97563.00;5031489;28;20037;-76
2021/04/21 02:49:47;;;;;;;24.65;14.15;;;;;;;5.96;100.00;97558.16;5031165;28;20041;-76
2021/04/21 02:52:19;;;;;;;23.55;13.90;;;;;;;5.91;100.00;97567.06;5066354;28;20051;-76
2021/04/21 02:55:23;;;;;;;26.50;14.05;;;;;;;5.90;100.00;97548.56;5049127;28;20319;-76
2021/04/21 02:58:00;;;;;;;25.52;14.73;;;;;;;5.68;100.00;97563.25;5033246;28;20037;-77
2021/04/21 03:00:30;;;;;;;27.67;14.75;;;;;;;5.67;100.00;97550.13;5051634;28;20238;-75
2021/04/21 03:03:13;;;;;;;23.17;15.23;;;;;;;5.66;100.00;97551.22;5048110;28;20041;-76
2021/04/21 03:05:46;;;;;;;26.60;15.85;;;;;;;5.65;100.00;97557.69;5062525;28;20392;-76
2021/04/21 03:08:20;;;;;;;30.73;16.70;;;;;;;5.65;100.00;97560.38;5047992;28;20069;-75
2021/04/21 03:10:54;;;;;;;30.13;17.30;;;;;;;5.59;100.00;97561.50;5048500;28;20239;-75
2021/04/21 03:13:25;;;;;;;26.13;16.42;;;;;;;5.59;100.00;97551.56;5029805;28;20479;-74
2021/04/21 03:15:59;;;;;;;26.13;16.85;;;;;;;5.51;100.00;97548.69;5031094;28;20045;-77
2021/04/21 03:18:27;;;;;;;27.90;16.10;;;;;;;5.53;100.00;97557.25;5030315;28;20052;-75
2021/04/21 03:21:06;;;;;;;29.17;16.30;;;;;;;5.43;100.00;97560.03;5054668;28;20057;-76
2021/04/21 03:23:35;;;;;;;27.45;16.13;;;;;;;5.40;100.00;97555.22;5029879;28;20127;-75
2021/04/21 03:26:02;;;;;;;28.35;15.77;;;;;;;5.35;100.00;97550.72;5048611;28;20501;-76
2021/04/21 03:28:31;;;;;;;28.33;16.15;;;;;;;5.26;100.00;97557.00;5047580;28;20045;-75
2021/04/21 03:31:01;;;;;;;26.02;15.73;;;;;;;5.21;100.00;97559.72;5050406;28;20071;-76
2021/04/21 03:33:41;;;;;;;25.90;16.33;;;;;;;5.01;100.00;97556.13;5029587;28;20484;-76
2021/04/21 03:36:08;;;;;;;26.98;16.30;;;;;;;5.05;100.00;97553.69;5048023;28;20402;-76
2021/04/21 03:38:35;;;;;;;26.77;16.45;;;;;;;5.00;100.00;97551.03;5047216;28;20051;-75
2021/04/21 03:41:01;;;;;;;35.25;16.80;;;;;;;4.92;100.00;97546.28;5047058;28;20121;-75
2021/04/21 03:43:28;;;;;;;30.38;17.38;;;;;;;4.89;100.00;97549.50;5047504;28;20048;-75
2021/04/21 03:45:55;;;;;;;33.90;16.63;;;;;;;4.85;100.00;97554.63;5046864;28;20098;-76
2021/04/21 03:48:22;;;;;;;30.42;17.65;;;;;;;4.80;100.00;97560.03;5028422;28;20095;-75
2021/04/21 03:50:51;;;;;;;31.63;17.67;;;;;;;4.73;100.00;97556.88;5029704;28;20033;-76
2021/04/21 03:53:19;;;;;;;26.02;16.35;;;;;;;4.74;100.00;97558.47;5028832;28;20055;-76
2021/04/21 03:55:47;;;;;;;32.85;18.38;;;;;;;4.73;100.00;97551.50;5042663;28;20068;-76
2021/04/21 03:58:17;;;;;;;31.13;17.65;;;;;;;4.61;100.00;97544.91;5025985;28;20045;-76
2021/04/21 04:00:51;;;;;;;28.98;16.85;;;;;;;4.60;100.00;97549.44;5046799;28;20080;-75
2021/04/21 04:03:25;;;;;;;29.13;18.50;;;;;;;4.59;100.00;97557.78;5048156;28;20112;-76
2021/04/21 04:06:04;;;;;;;35.38;19.88;;;;;;;4.57;100.00;97559.94;5037961;28;20052;-77
2021/04/21 04:08:38;;;;;;;32.72;17.77;;;;;;;4.47;100.00;97554.63;5043782;23;20527;-78
2021/04/21 04:11:10;;;;;;;33.33;18.27;;;;;;;4.41;100.00;97545.84;5024533;28;20060;-79
2021/04/21 04:13:41;;;;;;;34.70;19.20;;;;;;;4.41;100.00;97548.50;5065730;28;20048;-79
2021/04/21 04:16:13;;;;;;;38.53;18.83;;;;;;;4.34;100.00;97556.84;5039030;28;20044;-79
2021/04/21 04:18:43;;;;;;;33.78;18.60;;;;;;;4.25;100.00;97555.03;5074301;28;20040;-79
2021/04/21 04:21:13;;;;;;;34.17;18.80;;;;;;;4.20;100.00;97563.91;5067602;28;20036;-77
2021/04/21 04:23:41;;;;;;;36.20;19.65;;;;;;;4.23;100.00;97555.28;5069556;28;20476;-79
2021/04/21 04:26:09;;;;;;;34.75;19.27;;;;;;;4.28;100.00;97549.91;5051746;28;20055;-79
2021/04/21 04:28:36;;;;;;;33.53;17.98;;;;;;;4.27;100.00;97548.31;5051289;28;20055;-77
2021/04/21 04:31:07;;;;;;;31.55;17.80;;;;;;;4.25;100.00;97561.19;5069441;28;20122;-77
2021/04/21 04:33:34;;;;;;;32.85;18.05;;;;;;;4.30;100.00;97563.03;5027755;28;20428;-78
2021/04/21 04:36:03;;;;;;;34.15;18.20;;;;;;;4.26;100.00;97561.97;5062517;28;20082;-79
2021/04/21 04:38:30;;;;;;;33.90;17.38;;;;;;;4.28;100.00;97562.53;5065502;28;20044;-79
2021/04/21 04:40:56;;;;;;;27.35;16.83;;;;;;;4.32;100.00;97552.84;5067482;28;20514;-78
2021/04/21 04:43:23;;;;;;;31.05;17.65;;;;;;;4.26;100.00;97564.66;5067557;28;20052;-78
2021/04/21 04:46:00;;;;;;;35.38;17.90;;;;;;;4.32;100.00;97563.56;5068289;28;20044;-78
2021/04/21 04:48:36;;;;;;;30.30;16.38;;;;;;;4.35;100.00;97558.47;5051575;28;20032;-79
2021/04/21 04:51:05;;;;;;;29.63;17.95;;;;;;;4.35;100.00;97560.34;5068734;28;20047;-79
2021/04/21 04:53:35;;;;;;;29.02;18.02;;;;;;;4.38;100.00;97570.50;5050976;28;20135;-79
2021/04/21 04:56:07;;;;;;;30.27;18.35;;;;;;;4.45;100.00;97560.28;5042033;28;20129;-78
2021/04/21 04:58:35;;;;;;;33.45;19.30;;;;;;;4.55;100.00;97567.44;5049913;28;20122;-78
2021/04/21 05:01:09;;;;;;;29.58;18.52;;;;;;;4.62;100.00;97566.06;5024921;28;20044;-76
2021/04/21 05:03:47;;;;;;;31.08;18.85;;;;;;;4.68;100.00;97566.81;5057668;28;20036;-80
2021/04/21 05:06:15;;;;;;;37.97;18.95;;;;;;;4.91;100.00;97574.97;5040565;28;20103;-79
2021/04/21 05:08:50;;;;;;;36.38;19.33;;;;;;;5.02;100.00;97579.19;5031262;28;20492;-78
2021/04/21 05:11:18;;;;;;;30.70;18.92;;;;;;;5.05;100.00;97577.81;5050864;28;20052;-79
2021/04/21 05:13:50;;;;;;;40.35;20.27;;;;;;;5.10;100.00;97579.66;5067958;28;20049;-78
2021/04/21 05:16:54;;;;;;;35.03;19.77;;;;;;;5.09;100.00;97581.53;5071038;28;20051;-79
2021/04/21 05:19:43;;;;;;;37.55;19.48;;;;;;;5.18;100.00;97582.56;5052114;28;20047;-78
2021/04/21 05:22:44;;;;;;;37.10;20.70;;;;;;;5.30;100.00;97592.91;5051080;28;20041;-78
2021/04/21 05:25:55;;;;;;;35.67;20.02;;;;;;;5.39;100.00;97594.72;5034519;28;20045;-78
2021/04/21 05:28:43;;;;;;;34.08;20.83;;;;;;;5.66;100.00;97586.91;5051369;28;20075;-78
2021/04/21 05:31:38;;;;;;;36.92;21.58;;;;;;;5.84;100.00;97601.50;5051613;28;20140;-78
2021/04/21 05:34:49;;;;;;;44.78;22.23;;;;;;;6.05;100.00;97596.75;5053921;28;20071;-79
2021/04/21 05:37:40;;;;;;;33.90;20.35;;;;;;;6.62;100.00;97601.13;5070432;28;20076;-79
2021/04/21 05:40:44;;;;;;;35.90;16.48;;;;;;;7.21;100.00;97593.25;5051555;28;20131;-78
2021/04/21 05:43:48;;;;;;;23.48;14.18;;;;;;;7.69;100.00;97588.38;5078050;28;20041;-78
2021/04/21 05:46:40;;;;;;;23.23;12.85;;;;;;;8.12;100.00;97591.59;5052238;28;20464;-79
2021/04/21 05:49:44;;;;;;;22.42;12.98;;;;;;;8.36;100.00;97578.72;5051133;28;20442;-77
2021/04/21 05:52:22;;;;;;;17.65;11.40;;;;;;;8.61;100.00;97583.59;5029036;28;20048;-76
2021/04/21 05:55:25;;;;;;;26.17;12.15;;;;;;;8.77;100.00;97586.75;5067402;28;20339;-76
2021/04/21 05:58:20;;;;;;;25.85;10.88;;;;;;;8.91;100.00;97587.50;5050377;28;20482;-77
2021/04/21 06:01:23;;;;;;;18.00;10.10;;;;;;;9.01;100.00;97583.75;5050430;28;20040;-77
2021/04/21 06:03:55;;;;;;;22.30;11.93;;;;;;;9.04;100.00;97580.47;5050556;28;20044;-78
2021/04/21 06:06:21;;;;;;;21.98;11.23;;;;;;;9.11;100.00;97578.16;5068196;28;20063;-78
2021/04/21 06:08:48;;;;;;;20.20;10.48;;;;;;;9.13;100.00;97574.03;5069248;28;20056;-77
2021/04/21 06:11:16;;;;;;;21.45;10.73;;;;;;;9.20;100.00;97581.69;5034270;28;20040;-78
2021/04/21 06:13:44;;;;;;;24.25;11.35;;;;;;;9.24;100.00;97579.97;5056821;28;20067;-79
2021/04/21 06:16:11;;;;;;;17.05;10.98;;;;;;;9.33;100.00;97580.84;5063978;28;20044;-78
2021/04/21 06:18:38;;;;;;;22.30;10.85;;;;;;;9.36;100.00;97580.22;5055080;28;20052;-77
2021/04/21 06:21:15;;;;;;;21.15;11.20;;;;;;;9.48;100.00;97579.66;5053949;28;20518;-77
2021/04/21 06:23:44;;;;;;;22.90;11.77;;;;;;;9.56;100.00;97581.63;5079324;28;20090;-78
2021/04/21 06:26:11;;;;;;;19.33;12.77;;;;;;;9.66;100.00;97582.16;5073155;28;20119;-77
2021/04/21 06:28:37;;;;;;;19.17;12.02;;;;;;;9.73;100.00;97574.38;5036695;28;20064;-78
2021/04/21 06:31:06;;;;;;;22.77;11.77;;;;;;;9.68;100.00;97585.34;5053715;28;20457;-77
2021/04/21 06:33:43;;;;;;;23.27;11.55;;;;;;;9.73;100.00;97579.03;5071435;28;20411;-77
2021/04/21 06:36:12;;;;;;;18.88;12.00;;;;;;;9.88;100.00;97581.31;5060332;28;20049;-78
2021/04/21 06:38:40;;;;;;;21.42;12.32;;;;;;;9.77;100.00;97575.38;5075152;28;20553;-76
2021/04/21 06:41:08;;;;;;;18.08;11.65;;;;;;;9.86;100.00;97584.31;5036711;28;20044;-77
2021/04/21 06:43:37;;;;;;;21.23;11.85;;;;;;;9.77;100.00;97583.50;5071144;28;20136;-77
2021/04/21 06:46:10;;;;;;;21.73;12.00;;;;;;;9.85;100.00;97568.41;5052864;28;20328;-78
2021/04/21 06:48:38;;;;;;;22.33;12.75;;;;;;;9.91;100.00;97572.59;5052932;28;20049;-77
2021/04/21 06:51:07;;;;;;;24.77;12.25;;;;;;;9.95;100.00;97576.25;5053356;28;20047;-78
2021/04/21 06:53:33;;;;;;;22.40;12.75;;;;;;;9.97;100.00;97577.53;5052525;28;20048;-77
2021/04/21 06:56:00;;;;;;;22.67;12.50;;;;;;;9.92;100.00;97583.09;5052910;28;20044;-78
2021/04/21 06:58:30;;;;;;;22.83;12.38;;;;;;;9.95;100.00;97573.56;5070651;28;20040;-78
2021/04/21 07:01:18;;;;;;;24.05;12.93;;;;;;;10.13;100.00;97588.75;5070488;28;20060;-78
2021/04/21 07:03:45;;;;;;;21.50;11.90;;;;;;;10.15;100.00;97594.66;5035917;28;20049;-78
2021/04/21 07:06:13;;;;;;;19.30;12.45;;;;;;;10.36;100.00;97584.88;5070258;28;20060;-78
2021/04/21 07:08:41;;;;;;;22.80;12.15;;;;;;;10.24;100.00;97592.78;5069879;28;20044;-79
2021/04/21 07:11:23;;;;;;;23.02;12.23;;;;;;;10.32;100.00;97581.19;5070492;28;20050;-77
2021/04/21 07:13:51;;;;;;;23.80;12.57;;;;;;;10.46;100.00;97594.59;5035050;28;20036;-78
2021/04/21 07:16:19;;;;;;;20.17;11.68;;;;;;;10.52;100.00;97594.16;5052102;28;20040;-77
2021/04/21 07:19:06;;;;;;;21.38;12.32;;;;;;;10.56;100.00;97591.59;5035597;28;20055;-78
2021/04/21 07:21:33;;;;;;;;;;;;;;;10.69;100.00;97595.25;5078724;28;20095;-80
2021/04/21 07:24:03;;;;;;;18.08;11.05;;;;;;;10.84;100.00;97590.19;5075028;28;19927;-78
2021/04/21 07:26:32;;;;;;;24.10;12.07;;;;;;;11.07;100.00;97582.75;5070983;28;20361;-78
2021/04/21 07:28:59;;;;;;;22.98;12.05;;;;;;;10.91;100.00;97584.31;5051820;28;20489;-78
2021/04/21 07:31:26;;;;;;;20.17;11.75;;;;;;;10.89;100.00;97583.84;5069638;28;20085;-77
2021/04/21 07:34:01;;;;;;;21.40;11.63;;;;;;;10.95;100.00;97588.78;5069616;28;20085;-78
2021/04/21 07:36:28;;;;;;;28.88;12.18;;;;;;;11.34;100.00;97593.22;5051819;28;20053;-78
2021/04/21 07:39:05;;;;;;;27.15;12.32;;;;;;;11.41;100.00;97590.81;5052128;28;20048;-79
2021/04/21 07:41:43;;;;;;;23.08;11.55;;;;;;;11.52;100.00;97592.09;5071035;28;20048;-78
2021/04/21 07:44:28;;;;;;;17.33;11.00;;;;;;;11.48;100.00;97593.88;5070739;28;20041;-78
2021/04/21 07:47:06;;;;;;;22.30;11.80;;;;;;;11.20;100.00;97598.03;5036005;28;20044;-77
2021/04/21 07:49:48;;;;;;;20.23;11.13;;;;;;;11.13;100.00;97593.09;5052104;28;20051;-78
2021/04/21 07:52:22;;;;;;;21.75;11.18;;;;;;;11.13;100.00;97593.09;5052488;28;20050;-79
2021/04/21 07:54:48;;;;;;;20.25;11.70;;;;;;;11.01;100.00;97600.25;5053089;28;20381;-78
2021/04/21 07:57:18;;;;;;;21.60;11.52;;;;;;;11.18;100.00;97597.53;5069865;28;20048;-78
2021/04/21 07:59:46;;;;;;;20.50;11.55;;;;;;;11.42;100.00;97591.63;5053586;28;20108;-77
2021/04/21 08:02:15;;;;;;;24.40;12.18;;;;;;;11.54;100.00;97600.69;5069753;28;20113;-78
2021/04/21 08:04:59;;;;;;;20.67;10.50;;;;;;;11.74;100.00;97597.31;5069681;28;20119;-78
2021/04/21 08:07:35;;;;;;;21.45;11.98;;;;;;;11.57;100.00;97610.91;5040771;28;20048;-80
2021/04/21 08:10:25;;;;;;;20.83;10.60;;;;;;;11.60;100.00;97606.75;5043162;28;20040;-79
2021/04/21 08:12:58;;;;;;;16.27;10.18;;;;;;;11.54;100.00;97616.16;5054476;28;20048;-78
2021/04/21 08:15:32;;;;;;;20.48;11.65;;;;;;;11.78;100.00;97611.84;5053466;28;20044;-79
2021/04/21 08:18:04;;;;;;;22.63;11.65;;;;;;;11.97;100.00;97608.78;5036742;28;20491;-79
2021/04/21 08:20:36;;;;;;;21.50;11.30;;;;;;;11.98;100.00;97610.34;5070570;28;20041;-80
2021/04/21 08:23:22;;;;;;;19.83;11.32;;;;;;;11.93;100.00;97605.09;5038080;28;20133;-79
2021/04/21 08:25:50;;;;;;;20.48;10.63;;;;;;;11.84;100.00;97604.34;5069443;28;20049;-79
2021/04/21 08:28:20;;;;;;;21.02;10.40;;;;;;;11.72;100.00;97605.00;5070967;28;20052;-80
2021/04/21 08:30:53;;;;;;;20.00;10.25;;;;;;;11.88;100.00;97610.69;5034810;28;20132;-79
2021/04/21 08:33:19;;;;;;;19.60;10.68;;;;;;;11.98;100.00;97610.34;5035390;28;20044;-78
2021/04/21 08:35:45;;;;;;;22.13;9.65;;;;;;;12.10;100.00;97601.53;5069465;28;20040;-78
2021/04/21 08:38:11;;;;;;;17.60;10.18;;;;;;;12.18;100.00;97609.63;5051820;28;20077;-79
2021/04/21 08:40:40;;;;;;;19.80;8.32;;;;;;;12.46;100.00;97610.78;5052942;28;20040;-77
2021/04/21 08:43:08;;;;;;;15.68;8.10;;;;;;;12.56;100.00;97608.81;5069170;28;20067;-78
2021/04/21 08:45:38;;;;;;;13.82;7.43;;;;;;;12.53;100.00;97604.84;5069128;28;20094;-79
2021/04/21 08:48:05;;;;;;;20.50;7.80;;;;;;;12.63;100.00;97604.47;5070510;28;20041;-78
2021/04/21 08:50:36;;;;;;;22.55;8.40;;;;;;;12.86;100.00;97610.41;5069074;28;20048;-78
2021/04/21 08:53:05;;;;;;;15.77;8.73;;;;;;;12.68;100.00;97626.00;5033946;28;20492;-77
2021/04/21 08:55:32;;;;;;;15.07;8.13;;;;;;;12.69;100.00;97611.31;5066893;28;20037;-78
2021/04/21 08:58:01;;;;;;;17.98;9.00;;;;;;;12.92;100.00;97619.97;5049890;28;20041;-78
2021/04/21 09:00:28;;;;;;;20.13;9.25;;;;;;;12.98;100.00;97613.97;5068385;28;20040;-78
2021/04/21 09:03:00;;;;;;;22.15;9.15;;;;;;;13.01;100.00;97615.25;5067774;28;20128;-78
2021/04/21 09:05:26;;;;;;;15.63;9.27;;;;;;;13.09;100.00;97617.94;5050142;28;20040;-77
2021/04/21 09:07:53;;;;;;;27.92;9.50;;;;;;;13.19;100.00;97607.81;5067647;28;20503;-78
2021/04/21 09:10:19;;;;;;;19.35;8.98;;;;;;;13.30;100.00;97614.41;5067675;28;20052;-78
2021/04/21 09:12:45;;;;;;;26.20;9.18;;;;;;;13.50;100.00;97613.59;5067366;28;20139;-78
2021/04/21 09:15:13;;;;;;;18.85;9.02;;;;;;;13.48;100.00;97610.41;5049716;28;20049;-78
2021/04/21 09:17:47;;;;;;;21.55;8.90;;;;;;;13.60;100.00;97621.38;5050133;28;20048;-78
2021/04/21 09:20:16;;;;;;;14.38;8.20;;;;;;;13.65;100.00;97615.72;5068004;28;20036;-78
2021/04/21 09:23:12;;;;;;;17.13;8.25;;;;;;;14.00;100.00;97613.41;5066487;28;20071;-77
2021/04/21 09:25:44;;;;;;;21.98;8.60;;;;;;;13.81;100.00;97616.66;5050167;28;20049;-78
2021/04/21 09:28:11;;;;;;;16.95;9.07;;;;;;;13.86;100.00;97621.88;5034662;28;20049;-80
2021/04/21 09:30:40;;;;;;;19.35;8.27;;;;;;;13.97;100.00;97614.09;5069072;28;20048;-78
2021/04/21 09:33:08;;;;;;;22.00;8.23;;;;;;;14.00;100.00;97630.53;5050365;28;20049;-77
2021/04/21 09:35:43;;;;;;;21.58;8.25;;;;;;;14.27;100.00;97619.00;5068756;28;20041;-78
2021/04/21 09:38:16;;;;;;;19.85;8.48;;;;;;;14.64;100.00;97608.97;5050414;28;20048;-79
2021/04/21 09:40:53;;;;;;;15.35;7.97;;;;;;;14.59;100.00;97622.81;5069041;28;20060;-79
2021/04/21 09:43:23;;;;;;;17.92;8.80;;;;;;;14.53;100.00;97617.94;5033943;28;20067;-79
2021/04/21 09:45:51;;;;;;;19.42;9.60;;;;;;;14.73;100.00;97617.03;5050602;28;20040;-78
2021/04/21 09:48:40;;;;;;;16.52;9.13;;;;;;;14.89;100.00;97609.75;5072098;28;20319;-78
2021/04/21 09:51:09;;;;;;;22.50;9.15;;;;;;;15.61;100.00;97613.41;5073011;28;20397;-79
2021/04/21 09:53:40;;;;;;;21.77;9.75;;;;;;;15.44;100.00;97612.53;5057033;28;20067;-78
2021/04/21 09:56:12;;;;;;;16.30;8.70;;;;;;;15.54;100.00;97608.53;5054209;28;20467;-77
2021/04/21 09:58:55;;;;;;;20.75;9.48;;;;;;;16.27;93.06;97608.16;5054297;28;20151;-78
2021/04/21 10:01:25;;;;;;;13.73;8.88;;;;;;;16.27;93.06;97608.16;5071574;28;20033;-77
2021/04/21 10:04:24;;;;;;;13.60;8.80;;;;;;;16.54;87.45;97601.84;5052914;28;20041;-76
2021/04/21 10:09:31;;;;;;;19.77;9.90;;;;;;;15.67;100.00;97607.34;5044906;28;20095;-80
2021/04/21 10:12:13;;;;;;;15.82;9.07;;;;;;;17.93;72.02;97609.94;5052784;28;20036;-80
2021/04/21 10:14:40;;;;;;;18.05;9.02;;;;;;;17.44;65.46;97604.25;5055344;28;20048;-78
2021/04/21 10:17:06;;;;;;;18.60;9.93;;;;;;;15.71;77.73;97608.25;5055496;28;20051;-81
2021/04/21 10:19:35;;;;;;;22.13;9.68;;;;;;;15.02;91.46;97603.09;5056092;28;20029;-80
2021/04/21 10:22:05;;;;;;;18.10;8.90;;;;;;;17.28;68.83;97606.25;5056609;28;20056;-79
2021/04/21 10:24:31;;;;;;;20.83;9.40;;;;;;;18.52;61.48;97609.44;5055303;28;20045;-80
2021/04/21 10:26:58;;;;;;;14.85;9.02;;;;;;;18.95;57.42;97597.16;5056105;28;20045;-79
2021/04/21 10:29:25;;;;;;;22.08;9.38;;;;;;;18.99;52.76;97593.31;5063636;28;20049;-79
2021/04/21 10:31:53;;;;;;;16.52;8.48;;;;;;;19.83;49.75;97590.06;5070144;28;20739;-80
2021/04/21 10:34:22;;;;;;;15.35;8.05;;;;;;;20.16;52.96;97589.22;5052602;28;20067;-79
2021/04/21 10:36:51;;;;;;;12.35;7.30;;;;;;;21.46;47.85;97581.16;5055202;28;20167;-80
2021/04/21 10:39:51;;;;;;;12.93;7.68;;;;;;;18.63;49.76;97589.22;5053479;28;20488;-79
2021/04/21 10:42:20;;;;;;;14.13;7.30;;;;;;;19.34;49.47;97592.19;5044792;28;20102;-79
2021/04/21 10:44:48;;;;;;;18.25;7.20;;;;;;;18.76;48.92;97573.38;5057317;28;20059;-78
2021/04/21 10:47:15;;;;;;;18.02;7.07;;;;;;;20.35;45.97;97578.84;5038743;28;20097;-79
2021/04/21 10:49:58;;;;;;;17.85;7.40;;;;;;;20.73;41.38;97574.78;5056126;28;20554;-78
2021/04/21 10:52:30;;;;;;;14.40;6.80;;;;;;;20.90;41.94;97576.91;5055514;28;20060;-79
2021/04/21 10:55:18;;;;;;;13.90;6.65;;;;;;;22.01;40.62;97577.03;5055986;28;20037;-79
2021/04/21 10:58:06;;;;;;;17.42;7.00;;;;;;;20.85;42.89;97576.47;5044604;28;20065;-80
2021/04/21 11:00:38;;;;;;;16.70;7.50;;;;;;;21.17;41.17;97582.97;5055581;28;20048;-79
2021/04/21 11:03:13;;;;;;;17.63;6.68;;;;;;;21.03;41.73;97569.88;5054946;28;20051;-80
2021/04/21 11:05:42;;;;;;;18.70;6.97;;;;;;;20.93;43.09;97569.84;5037125;28;20049;-79
2021/04/21 11:08:25;;;;;;;15.48;7.25;;;;;;;18.95;46.24;97570.50;5054753;28;20045;-79
2021/04/21 11:11:02;;;;;;;18.33;7.28;;;;;;;20.80;43.59;97566.59;5055387;28;20044;-79
2021/04/21 11:13:28;;;;;;;13.27;7.10;;;;;;;21.55;39.89;97562.31;5055518;28;20060;-80
2021/04/21 11:15:55;;;;;;;18.67;6.93;;;;;;;21.33;41.13;97553.16;5055773;28;20105;-79
2021/04/21 11:18:30;;;;;;;15.60;6.57;;;;;;;19.82;43.38;97552.78;5054429;28;20416;-80
2021/04/21 11:21:04;;;;;;;;;;;;;;;21.42;41.19;97561.06;5038287;28;20078;-79
2021/04/21 11:23:58;;;;;;;13.57;6.35;;;;;;;21.50;40.07;97563.44;5055119;28;19920;-78
2021/04/21 11:26:25;;;;;;;13.57;6.72;;;;;;;20.02;40.70;97550.63;5056349;28;20268;-79
2021/04/21 11:29:13;;;;;;;16.90;6.15;;;;;;;18.78;43.79;97551.06;5055784;28;20045;-79
2021/04/21 11:31:42;;;;;;;13.50;6.93;;;;;;;17.96;45.83;97554.41;5042760;28;20060;-78
2021/04/21 11:34:32;;;;;;;12.60;6.95;;;;;;;18.55;44.73;97551.91;5054550;28;20110;-79
2021/04/21 11:36:59;;;;;;;12.95;5.75;;;;;;;19.92;42.23;97558.34;5040661;28;20051;-80
2021/04/21 11:39:43;;;;;;;15.20;6.15;;;;;;;20.46;42.35;97543.97;5038840;28;20754;-78
2021/04/21 11:42:28;;;;;;;13.05;5.72;;;;;;;19.75;40.82;97542.50;5054214;28;20048;-79
2021/04/21 11:45:01;;;;;;;12.10;6.30;;;;;;;19.12;43.77;97549.97;5037253;28;20045;-78
2021/04/21 11:47:47;;;;;;;13.13;5.97;;;;;;;18.63;45.07;97541.84;5054046;28;20071;-80
2021/04/21 11:50:25;;;;;;;15.32;6.38;;;;;;;20.69;40.53;97551.19;5054637;28;20041;-79
2021/04/21 11:52:59;;;;;;;14.10;5.47;;;;;;;20.08;41.22;97544.38;5054409;28;20044;-79